메인 페이지
METAR-TAF:

METAR-TAF

공항 :

Plainview, 텍사스, 미국

위도: 34-10-05N, 경도: 101-43-02W, 고도: 1028m

현재 날씨관측

예보는 25분 전, 21:35시(UTC)에 발표되었습니다.
남남서10kt, 순간 최대 풍속 14kt
온도 17°C
습도 27%
기압 1019 hPa
시정: 16.1km
고도 8500ft 상공 구름 보통

METAR: KPVW 192135Z AUTO 21010G14KT 10SM SCT085 17/M02 A3009 RMK AO2 T01731017

시각: 17:00 (22:00 UTC)

예보

예보는 4 시간 40분 전, 17:20시(UTC)에 발표되었습니다.
예보 대상 시간: 19일 18시부터 20일 18시까지 (UTC)
남서15kt
시정: 10km
맑음
20일 0000시부터 (UTC)
11kt
시정: 10km
고도 10000ft 상공 구름 보통
20일 0200시부터 (UTC)
북북동11kt
시정: 10km
고도 8000ft 상공 구름 많음

TAF: KPVW 191720Z 1918/2018 22015KT P6SM SKC FM200000 17011KT P6SM SCT100 FM200200 03011KT P6SM BKN080

4,000개 이상의 공항 관측 자료 및 예보 (METAR 및 TAF 보고).

지도상에서 검색 가능한 기상관측소가 노란 점과 빨간 점으로 표시되어 있습니다.

기상관측소 명을 보려면 표시 위로 마우스를 이동하세요.

날씨 관측과 예보를 보려면 클릭하세요.

지도 변경 : 확대하려면 엑스 표시가 있는 녹색 버튼, 축소하려면 빼기 표시가 있는 녹색 버튼, 다음 페이지의 지도를 보려면 녹색 화살표를 클릭하세요.


METAR-TAF: